sensor_id;sensor_type;location;lat;lon;timestamp;pressure;altitude;pressure_sealevel;temperature;humidity
59009;BME280;44794;42.652;23.318;2023-02-03T00:01:56;94747.81;;;2.28;84.15
59009;BME280;44794;42.652;23.318;2023-02-03T00:04:22;94742.25;;;2.19;84.97
59009;BME280;44794;42.652;23.318;2023-02-03T00:06:47;94740.50;;;2.20;86.10
59009;BME280;44794;42.652;23.318;2023-02-03T00:09:14;94734.97;;;2.09;87.29
59009;BME280;44794;42.652;23.318;2023-02-03T00:11:39;94734.69;;;1.95;88.01
59009;BME280;44794;42.652;23.318;2023-02-03T00:14:05;94738.31;;;1.89;88.52
59009;BME280;44794;42.652;23.318;2023-02-03T00:16:32;94747.13;;;1.82;88.55
59009;BME280;44794;42.652;23.318;2023-02-03T00:18:58;94740.88;;;1.89;89.27
59009;BME280;44794;42.652;23.318;2023-02-03T00:21:23;94747.84;;;1.86;89.46
59009;BME280;44794;42.652;23.318;2023-02-03T00:23:49;94742.16;;;1.78;89.92
59009;BME280;44794;42.652;23.318;2023-02-03T00:26:15;94740.41;;;1.80;90.63
59009;BME280;44794;42.652;23.318;2023-02-03T00:28:41;94740.41;;;1.80;91.65
59009;BME280;44794;42.652;23.318;2023-02-03T00:31:14;94742.34;;;1.73;92.40
59009;BME280;44794;42.652;23.318;2023-02-03T00:33:41;94730.44;;;1.72;92.84
59009;BME280;44794;42.652;23.318;2023-02-03T00:36:06;94730.50;;;1.71;92.97
59009;BME280;44794;42.652;23.318;2023-02-03T00:38:32;94743.47;;;1.66;93.43
59009;BME280;44794;42.652;23.318;2023-02-03T00:40:57;94748.50;;;1.68;93.35
59009;BME280;44794;42.652;23.318;2023-02-03T00:43:23;94750.16;;;1.70;93.56
59009;BME280;44794;42.652;23.318;2023-02-03T00:45:48;94750.97;;;1.71;93.76
59009;BME280;44794;42.652;23.318;2023-02-03T00:48:13;94750.44;;;1.63;93.55
59009;BME280;44794;42.652;23.318;2023-02-03T00:50:39;94753.63;;;1.68;93.45
59009;BME280;44794;42.652;23.318;2023-02-03T00:53:05;94750.09;;;1.72;93.22
59009;BME280;44794;42.652;23.318;2023-02-03T00:55:30;94759.13;;;1.80;93.00
59009;BME280;44794;42.652;23.318;2023-02-03T00:57:56;94768.56;;;1.80;92.26
59009;BME280;44794;42.652;23.318;2023-02-03T01:00:21;94763.31;;;1.83;91.93
59009;BME280;44794;42.652;23.318;2023-02-03T01:02:47;94767.69;;;1.79;91.29
59009;BME280;44794;42.652;23.318;2023-02-03T01:05:12;94772.78;;;1.81;91.12
59009;BME280;44794;42.652;23.318;2023-02-03T01:07:38;94783.19;;;1.76;91.53
59009;BME280;44794;42.652;23.318;2023-02-03T01:10:04;94786.25;;;1.63;92.32
59009;BME280;44794;42.652;23.318;2023-02-03T01:12:30;94770.47;;;1.52;93.83
59009;BME280;44794;42.652;23.318;2023-02-03T01:14:57;94771.94;;;1.57;94.36
59009;BME280;44794;42.652;23.318;2023-02-03T01:17:24;94776.34;;;1.54;93.89
59009;BME280;44794;42.652;23.318;2023-02-03T01:19:51;94767.22;;;1.47;93.21
59009;BME280;44794;42.652;23.318;2023-02-03T01:22:16;94773.13;;;1.49;93.18
59009;BME280;44794;42.652;23.318;2023-02-03T01:24:42;94769.69;;;1.50;92.84
59009;BME280;44794;42.652;23.318;2023-02-03T01:27:07;94769.91;;;1.44;92.34
59009;BME280;44794;42.652;23.318;2023-02-03T01:29:33;94773.19;;;1.48;92.39
59009;BME280;44794;42.652;23.318;2023-02-03T01:31:59;94770.56;;;1.49;92.02
59009;BME280;44794;42.652;23.318;2023-02-03T01:34:24;94769.69;;;1.50;91.78
59009;BME280;44794;42.652;23.318;2023-02-03T01:36:50;94766.34;;;1.48;91.64
59009;BME280;44794;42.652;23.318;2023-02-03T01:39:15;94763.19;;;1.42;92.06
59009;BME280;44794;42.652;23.318;2023-02-03T01:41:41;94763.41;;;1.36;92.22
59009;BME280;44794;42.652;23.318;2023-02-03T01:44:48;94776.69;;;1.22;92.39
59009;BME280;44794;42.652;23.318;2023-02-03T01:52:27;94789.03;;;1.34;92.73
59009;BME280;44794;42.652;23.318;2023-02-03T01:54:55;94802.84;;;1.30;92.69
59009;BME280;44794;42.652;23.318;2023-02-03T01:57:28;94799.16;;;1.37;92.63
59009;BME280;44794;42.652;23.318;2023-02-03T01:59:57;94775.41;;;1.34;92.49
59009;BME280;44794;42.652;23.318;2023-02-03T02:02:24;94793.25;;;1.35;92.29
59009;BME280;44794;42.652;23.318;2023-02-03T02:05:09;94797.34;;;1.41;92.07
59009;BME280;44794;42.652;23.318;2023-02-03T02:07:36;94792.28;;;1.39;92.09
59009;BME280;44794;42.652;23.318;2023-02-03T02:10:03;94799.75;;;1.44;91.97
59009;BME280;44794;42.652;23.318;2023-02-03T02:12:29;94807.63;;;1.39;91.49
59009;BME280;44794;42.652;23.318;2023-02-03T02:14:55;94814.22;;;1.45;91.20
59009;BME280;44794;42.652;23.318;2023-02-03T02:25:55;94809.84;;;1.48;90.12
59009;BME280;44794;42.652;23.318;2023-02-03T02:37:00;94813.28;;;1.47;89.75
59009;BME280;44794;42.652;23.318;2023-02-03T02:42:58;94827.38;;;1.36;89.06
59009;BME280;44794;42.652;23.318;2023-02-03T02:45:42;94811.97;;;1.37;88.77
59009;BME280;44794;42.652;23.318;2023-02-03T02:48:16;94820.28;;;1.42;88.00
59009;BME280;44794;42.652;23.318;2023-02-03T02:50:48;94815.03;;;1.47;88.25
59009;BME280;44794;42.652;23.318;2023-02-03T02:53:17;94822.91;;;1.41;87.99
59009;BME280;44794;42.652;23.318;2023-02-03T02:55:45;94830.75;;;1.36;87.63
59009;BME280;44794;42.652;23.318;2023-02-03T02:58:13;94837.47;;;1.39;87.34
59009;BME280;44794;42.652;23.318;2023-02-03T03:00:42;94839.00;;;1.44;87.27
59009;BME280;44794;42.652;23.318;2023-02-03T03:03:28;94854.72;;;1.34;86.95
59009;BME280;44794;42.652;23.318;2023-02-03T03:11:14;94843.75;;;1.30;86.21
59009;BME280;44794;42.652;23.318;2023-02-03T03:13:55;94841.28;;;1.27;85.96
59009;BME280;44794;42.652;23.318;2023-02-03T03:16:26;94858.38;;;1.27;85.82
59009;BME280;44794;42.652;23.318;2023-02-03T03:18:58;94859.53;;;1.18;85.67
59009;BME280;44794;42.652;23.318;2023-02-03T03:21:25;94850.84;;;1.22;85.30
59009;BME280;44794;42.652;23.318;2023-02-03T03:23:55;94868.66;;;1.25;84.70
59009;BME280;44794;42.652;23.318;2023-02-03T03:26:28;94873.19;;;1.17;84.74
59009;BME280;44794;42.652;23.318;2023-02-03T03:29:17;94873.81;;;1.24;84.80
59009;BME280;44794;42.652;23.318;2023-02-03T03:31:44;94860.41;;;1.17;84.68
59009;BME280;44794;42.652;23.318;2023-02-03T03:34:11;94869.94;;;1.12;84.48
59009;BME280;44794;42.652;23.318;2023-02-03T03:36:45;94867.44;;;1.11;84.37
59009;BME280;44794;42.652;23.318;2023-02-03T03:44:41;94863.38;;;1.05;85.03
59009;BME280;44794;42.652;23.318;2023-02-03T03:47:15;94871.94;;;1.04;85.13
59009;BME280;44794;42.652;23.318;2023-02-03T03:49:44;94858.16;;;1.08;84.73
59009;BME280;44794;42.652;23.318;2023-02-03T03:52:14;94866.63;;;1.10;84.59
59009;BME280;44794;42.652;23.318;2023-02-03T03:54:43;94862.28;;;1.12;84.46
59009;BME280;44794;42.652;23.318;2023-02-03T03:57:38;94860.56;;;1.13;84.14
59009;BME280;44794;42.652;23.318;2023-02-03T04:00:07;94856.41;;;1.10;84.45
59009;BME280;44794;42.652;23.318;2023-02-03T04:02:35;94858.84;;;1.13;84.66
59009;BME280;44794;42.652;23.318;2023-02-03T04:05:03;94867.75;;;1.02;84.97
59009;BME280;44794;42.652;23.318;2023-02-03T04:07:45;94866.03;;;1.02;85.59
59009;BME280;44794;42.652;23.318;2023-02-03T04:12:40;94870.47;;;0.97;85.98
59009;BME280;44794;42.652;23.318;2023-02-03T04:15:06;94879.13;;;0.93;86.30
59009;BME280;44794;42.652;23.318;2023-02-03T04:17:31;94874.69;;;0.98;86.24
59009;BME280;44794;42.652;23.318;2023-02-03T04:19:58;94874.00;;;0.93;86.40
59009;BME280;44794;42.652;23.318;2023-02-03T04:22:23;94886.84;;;0.92;86.54
59009;BME280;44794;42.652;23.318;2023-02-03T04:24:49;94891.81;;;0.96;86.10
59009;BME280;44794;42.652;23.318;2023-02-03T04:27:14;94892.56;;;0.98;85.94
59009;BME280;44794;42.652;23.318;2023-02-03T04:29:39;94912.84;;;1.04;85.77
59009;BME280;44794;42.652;23.318;2023-02-03T04:32:05;94930.50;;;1.12;85.85
59009;BME280;44794;42.652;23.318;2023-02-03T04:34:30;94929.75;;;1.08;86.03
59009;BME280;44794;42.652;23.318;2023-02-03T04:36:56;94918.69;;;1.08;85.92
59009;BME280;44794;42.652;23.318;2023-02-03T04:39:21;94927.88;;;1.13;85.73
59009;BME280;44794;42.652;23.318;2023-02-03T04:41:46;94934.03;;;1.08;85.74
59009;BME280;44794;42.652;23.318;2023-02-03T04:44:12;94945.00;;;1.11;85.63
59009;BME280;44794;42.652;23.318;2023-02-03T04:46:37;94949.22;;;1.12;85.59
59009;BME280;44794;42.652;23.318;2023-02-03T04:49:02;94958.47;;;1.16;85.65
59009;BME280;44794;42.652;23.318;2023-02-03T04:51:28;94955.66;;;1.24;85.57
59009;BME280;44794;42.652;23.318;2023-02-03T04:53:53;94956.59;;;1.21;85.17
59009;BME280;44794;42.652;23.318;2023-02-03T04:56:19;94959.94;;;1.23;85.15
59009;BME280;44794;42.652;23.318;2023-02-03T04:58:44;94952.50;;;1.16;85.24
59009;BME280;44794;42.652;23.318;2023-02-03T05:01:10;94955.78;;;1.21;84.99
59009;BME280;44794;42.652;23.318;2023-02-03T05:03:35;94969.44;;;1.20;84.63
59009;BME280;44794;42.652;23.318;2023-02-03T05:06:01;94969.44;;;1.20;84.71
59009;BME280;44794;42.652;23.318;2023-02-03T05:08:28;94972.44;;;1.32;84.62
59009;BME280;44794;42.652;23.318;2023-02-03T05:10:53;94975.16;;;1.26;84.22
59009;BME280;44794;42.652;23.318;2023-02-03T05:13:18;94977.50;;;1.34;84.31
59009;BME280;44794;42.652;23.318;2023-02-03T05:15:44;94978.13;;;1.40;84.05
59009;BME280;44794;42.652;23.318;2023-02-03T05:18:09;94978.28;;;1.36;83.60
59009;BME280;44794;42.652;23.318;2023-02-03T05:20:35;94989.94;;;1.44;83.73
59009;BME280;44794;42.652;23.318;2023-02-03T05:23:00;94992.69;;;1.38;83.66
59009;BME280;44794;42.652;23.318;2023-02-03T05:25:26;94991.91;;;1.36;83.90
59009;BME280;44794;42.652;23.318;2023-02-03T05:27:51;94991.81;;;1.39;84.00
59009;BME280;44794;42.652;23.318;2023-02-03T05:30:17;94991.03;;;1.37;84.27
59009;BME280;44794;42.652;23.318;2023-02-03T05:32:42;94998.19;;;1.26;84.48
59009;BME280;44794;42.652;23.318;2023-02-03T05:35:08;94991.81;;;1.13;84.96
59009;BME280;44794;42.652;23.318;2023-02-03T05:37:33;94986.66;;;1.15;85.35
59009;BME280;44794;42.652;23.318;2023-02-03T05:39:58;94990.28;;;1.08;85.56
59009;BME280;44794;42.652;23.318;2023-02-03T05:42:48;94982.03;;;1.00;86.02
59009;BME280;44794;42.652;23.318;2023-02-03T05:45:14;94973.81;;;0.90;86.23
59009;BME280;44794;42.652;23.318;2023-02-03T05:47:39;94978.75;;;0.95;86.79
59009;BME280;44794;42.652;23.318;2023-02-03T05:50:05;94984.19;;;0.86;86.49
59009;BME280;44794;42.652;23.318;2023-02-03T05:52:31;94985.84;;;0.87;87.28
59009;BME280;44794;42.652;23.318;2023-02-03T05:54:56;94987.06;;;0.75;87.38
59009;BME280;44794;42.652;23.318;2023-02-03T05:57:22;94986.88;;;0.81;87.27
59009;BME280;44794;42.652;23.318;2023-02-03T05:59:47;94997.19;;;0.78;87.36
59009;BME280;44794;42.652;23.318;2023-02-03T06:02:14;95002.22;;;0.81;86.92
59009;BME280;44794;42.652;23.318;2023-02-03T06:04:39;95004.63;;;0.86;86.73
59009;BME280;44794;42.652;23.318;2023-02-03T06:07:05;95007.94;;;0.88;86.45
59009;BME280;44794;42.652;23.318;2023-02-03T06:09:30;95001.94;;;0.90;86.28
59009;BME280;44794;42.652;23.318;2023-02-03T06:11:56;95011.84;;;0.99;85.92
59009;BME280;44794;42.652;23.318;2023-02-03T06:14:21;95009.69;;;1.13;85.21
59009;BME280;44794;42.652;23.318;2023-02-03T06:16:47;95016.41;;;1.17;84.76
59009;BME280;44794;42.652;23.318;2023-02-03T06:19:12;95020.38;;;1.26;84.14
59009;BME280;44794;42.652;23.318;2023-02-03T06:21:37;95013.59;;;1.25;84.04
59009;BME280;44794;42.652;23.318;2023-02-03T06:24:03;95020.31;;;1.29;83.39
59009;BME280;44794;42.652;23.318;2023-02-03T06:26:28;95026.25;;;1.29;83.29
59009;BME280;44794;42.652;23.318;2023-02-03T06:28:54;95026.03;;;1.35;82.97
59009;BME280;44794;42.652;23.318;2023-02-03T06:31:19;95036.00;;;1.44;81.78
59009;BME280;44794;42.652;23.318;2023-02-03T06:33:44;95036.88;;;1.43;81.25
59009;BME280;44794;42.652;23.318;2023-02-03T06:36:10;95039.03;;;1.55;81.10
59009;BME280;44794;42.652;23.318;2023-02-03T06:38:35;95047.59;;;1.54;80.25
59009;BME280;44794;42.652;23.318;2023-02-03T06:41:01;95047.94;;;1.69;80.11
59009;BME280;44794;42.652;23.318;2023-02-03T06:43:26;95054.09;;;1.64;79.10
59009;BME280;44794;42.652;23.318;2023-02-03T06:45:52;95056.94;;;1.81;78.61
59009;BME280;44794;42.652;23.318;2023-02-03T06:48:17;95069.78;;;2.04;77.68
59009;BME280;44794;42.652;23.318;2023-02-03T06:50:43;95071.75;;;2.22;76.62
59009;BME280;44794;42.652;23.318;2023-02-03T06:53:09;95068.91;;;2.29;75.82
59009;BME280;44794;42.652;23.318;2023-02-03T06:55:35;95072.19;;;2.32;75.70
59009;BME280;44794;42.652;23.318;2023-02-03T06:58:00;95068.84;;;2.30;75.60
59009;BME280;44794;42.652;23.318;2023-02-03T07:00:26;95063.63;;;2.09;75.90
59009;BME280;44794;42.652;23.318;2023-02-03T07:02:53;95068.09;;;2.04;76.46
59009;BME280;44794;42.652;23.318;2023-02-03T07:05:19;95064.56;;;2.07;76.75
59009;BME280;44794;42.652;23.318;2023-02-03T07:07:45;95069.78;;;2.04;76.65
59009;BME280;44794;42.652;23.318;2023-02-03T07:10:10;95037.50;;;2.00;76.35
59009;BME280;44794;42.652;23.318;2023-02-03T07:12:36;95060.56;;;2.00;76.38
59009;BME280;44794;42.652;23.318;2023-02-03T07:15:03;95056.81;;;2.08;76.22
59009;BME280;44794;42.652;23.318;2023-02-03T07:17:28;95047.75;;;2.00;75.38
59009;BME280;44794;42.652;23.318;2023-02-03T07:19:54;95051.88;;;2.04;75.32
59009;BME280;44794;42.652;23.318;2023-02-03T07:22:19;95047.44;;;2.09;75.48
59009;BME280;44794;42.652;23.318;2023-02-03T07:24:44;95045.06;;;2.03;75.40
59009;BME280;44794;42.652;23.318;2023-02-03T07:27:10;95050.00;;;2.09;75.10
59009;BME280;44794;42.652;23.318;2023-02-03T07:29:36;95055.88;;;2.11;74.64
59009;BME280;44794;42.652;23.318;2023-02-03T07:32:03;95061.00;;;2.11;74.37
59009;BME280;44794;42.652;23.318;2023-02-03T07:34:29;95073.66;;;2.15;74.42
59009;BME280;44794;42.652;23.318;2023-02-03T07:36:56;95065.81;;;2.20;74.58
59009;BME280;44794;42.652;23.318;2023-02-03T07:39:21;95066.25;;;2.08;74.04
59009;BME280;44794;42.652;23.318;2023-02-03T07:41:46;95079.00;;;2.09;74.51
59009;BME280;44794;42.652;23.318;2023-02-03T07:44:12;95049.81;;;2.13;74.56
59009;BME280;44794;42.652;23.318;2023-02-03T07:46:38;95082.19;;;2.16;74.27
59009;BME280;44794;42.652;23.318;2023-02-03T07:49:10;95074.91;;;2.28;74.54
59009;BME280;44794;42.652;23.318;2023-02-03T07:51:35;95083.84;;;2.41;74.42
59009;BME280;44794;42.652;23.318;2023-02-03T07:54:01;95087.31;;;2.40;74.12
59009;BME280;44794;42.652;23.318;2023-02-03T07:56:27;95077.09;;;2.38;73.55
59009;BME280;44794;42.652;23.318;2023-02-03T07:58:52;95093.31;;;2.39;73.31
59009;BME280;44794;42.652;23.318;2023-02-03T08:01:18;95097.22;;;2.49;73.26
59009;BME280;44794;42.652;23.318;2023-02-03T08:03:44;95103.34;;;2.45;73.49
59009;BME280;44794;42.652;23.318;2023-02-03T08:06:09;95098.28;;;2.43;73.58
59009;BME280;44794;42.652;23.318;2023-02-03T08:08:35;95099.84;;;2.47;73.24
59009;BME280;44794;42.652;23.318;2023-02-03T08:11:01;95106.38;;;2.31;73.31
59009;BME280;44794;42.652;23.318;2023-02-03T08:13:26;95106.38;;;2.31;73.55
59009;BME280;44794;42.652;23.318;2023-02-03T08:15:52;95110.63;;;2.32;73.95
59009;BME280;44794;42.652;23.318;2023-02-03T08:18:18;95112.16;;;2.38;73.87
59009;BME280;44794;42.652;23.318;2023-02-03T08:20:43;95114.06;;;2.31;73.56
59009;BME280;44794;42.652;23.318;2023-02-03T08:23:08;95118.09;;;2.38;73.97
59009;BME280;44794;42.652;23.318;2023-02-03T08:25:34;95124.84;;;2.41;73.38
59009;BME280;44794;42.652;23.318;2023-02-03T08:27:59;95123.91;;;2.43;73.30
59009;BME280;44794;42.652;23.318;2023-02-03T08:30:25;95128.69;;;2.52;72.78
59009;BME280;44794;42.652;23.318;2023-02-03T08:32:50;95125.91;;;2.58;72.32
59009;BME280;44794;42.652;23.318;2023-02-03T08:35:16;95135.88;;;2.67;71.97
59009;BME280;44794;42.652;23.318;2023-02-03T08:37:42;95133.78;;;2.78;71.47
59009;BME280;44794;42.652;23.318;2023-02-03T08:40:09;95127.69;;;2.81;70.58
59009;BME280;44794;42.652;23.318;2023-02-03T08:42:34;95128.28;;;2.87;69.92
59009;BME280;44794;42.652;23.318;2023-02-03T08:45:00;95127.91;;;3.20;69.66
59009;BME280;44794;42.652;23.318;2023-02-03T08:47:26;95152.03;;;3.38;67.15
59009;BME280;44794;42.652;23.318;2023-02-03T08:49:51;95140.00;;;3.40;65.79
59009;BME280;44794;42.652;23.318;2023-02-03T08:52:17;95149.13;;;3.47;66.12
59009;BME280;44794;42.652;23.318;2023-02-03T08:54:43;95170.66;;;3.43;66.33
59009;BME280;44794;42.652;23.318;2023-02-03T08:57:09;95154.44;;;3.42;66.24
59009;BME280;44794;42.652;23.318;2023-02-03T08:59:37;95153.97;;;3.31;67.34
59009;BME280;44794;42.652;23.318;2023-02-03T09:02:04;95159.88;;;3.12;67.77
59009;BME280;44794;42.652;23.318;2023-02-03T09:04:30;95164.22;;;3.10;68.57
59009;BME280;44794;42.652;23.318;2023-02-03T09:06:57;95151.66;;;3.25;68.71
59009;BME280;44794;42.652;23.318;2023-02-03T09:09:23;95155.44;;;3.38;68.25
59009;BME280;44794;42.652;23.318;2023-02-03T09:11:50;95145.78;;;3.45;67.55
59009;BME280;44794;42.652;23.318;2023-02-03T09:14:16;95140.34;;;3.31;68.25
59009;BME280;44794;42.652;23.318;2023-02-03T09:16:41;95142.88;;;3.54;68.53
59009;BME280;44794;42.652;23.318;2023-02-03T09:19:07;95125.91;;;3.50;67.81
59009;BME280;44794;42.652;23.318;2023-02-03T09:21:33;95134.88;;;3.82;67.96
59009;BME280;44794;42.652;23.318;2023-02-03T09:24:00;95131.16;;;3.47;66.87
59009;BME280;44794;42.652;23.318;2023-02-03T09:26:26;95122.44;;;3.51;67.85
59009;BME280;44794;42.652;23.318;2023-02-03T09:28:51;95130.31;;;3.46;67.71
59009;BME280;44794;42.652;23.318;2023-02-03T09:31:17;95134.75;;;3.64;67.29
59009;BME280;44794;42.652;23.318;2023-02-03T09:33:44;95140.06;;;3.60;66.58
59009;BME280;44794;42.652;23.318;2023-02-03T09:36:10;95151.47;;;3.53;66.14
59009;BME280;44794;42.652;23.318;2023-02-03T09:38:36;95131.97;;;3.26;66.73
59009;BME280;44794;42.652;23.318;2023-02-03T09:44:11;95137.22;;;3.00;68.74
59009;BME280;44794;42.652;23.318;2023-02-03T09:47:04;95132.53;;;3.11;68.83
59009;BME280;44794;42.652;23.318;2023-02-03T09:49:36;95121.63;;;3.06;66.76
59009;BME280;44794;42.652;23.318;2023-02-03T09:54:51;95122.28;;;2.88;65.01
59009;BME280;44794;42.652;23.318;2023-02-03T09:57:24;95133.91;;;2.96;64.22
59009;BME280;44794;42.652;23.318;2023-02-03T09:59:52;95115.47;;;3.10;64.31
59009;BME280;44794;42.652;23.318;2023-02-03T10:08:11;95106.31;;;3.26;63.03
59009;BME280;44794;42.652;23.318;2023-02-03T10:10:52;95106.03;;;3.55;63.00
59009;BME280;44794;42.652;23.318;2023-02-03T10:18:55;95114.66;;;4.15;59.89
59009;BME280;44794;42.652;23.318;2023-02-03T10:23:53;95109.75;;;4.30;58.72
59009;BME280;44794;42.652;23.318;2023-02-03T10:26:25;95107.63;;;4.40;58.31
59009;BME280;44794;42.652;23.318;2023-02-03T10:28:56;95110.38;;;4.55;58.04
59009;BME280;44794;42.652;23.318;2023-02-03T10:31:25;95101.38;;;4.65;57.64
59009;BME280;44794;42.652;23.318;2023-02-03T10:34:15;95114.25;;;4.45;54.38
59009;BME280;44794;42.652;23.318;2023-02-03T10:39:40;95103.34;;;4.97;53.27
59009;BME280;44794;42.652;23.318;2023-02-03T10:42:07;95106.31;;;4.88;54.48
59009;BME280;44794;42.652;23.318;2023-02-03T10:44:47;95110.38;;;4.93;54.37
59009;BME280;44794;42.652;23.318;2023-02-03T10:47:41;95101.19;;;5.06;54.18
59009;BME280;44794;42.652;23.318;2023-02-03T10:50:13;95099.78;;;4.81;53.06
59009;BME280;44794;42.652;23.318;2023-02-03T10:52:39;95100.53;;;4.44;54.05
59009;BME280;44794;42.652;23.318;2023-02-03T10:57:52;95101.41;;;3.84;53.73
59009;BME280;44794;42.652;23.318;2023-02-03T11:05:24;95099.81;;;4.01;52.75
59009;BME280;44794;42.652;23.318;2023-02-03T11:07:51;95107.53;;;4.01;51.54
59009;BME280;44794;42.652;23.318;2023-02-03T11:16:00;95104.50;;;3.92;50.67
59009;BME280;44794;42.652;23.318;2023-02-03T11:21:50;95091.16;;;4.24;51.78
59009;BME280;44794;42.652;23.318;2023-02-03T11:24:21;95087.06;;;3.78;53.60
59009;BME280;44794;42.652;23.318;2023-02-03T11:26:58;95077.78;;;3.55;54.69
59009;BME280;44794;42.652;23.318;2023-02-03T11:29:28;95073.69;;;3.70;55.54
59009;BME280;44794;42.652;23.318;2023-02-03T11:31:56;95071.66;;;3.78;55.32
59009;BME280;44794;42.652;23.318;2023-02-03T11:34:30;95069.47;;;3.69;54.15
59009;BME280;44794;42.652;23.318;2023-02-03T11:37:09;95064.03;;;3.77;54.03
59009;BME280;44794;42.652;23.318;2023-02-03T11:39:49;95064.31;;;3.69;52.35
59009;BME280;44794;42.652;23.318;2023-02-03T11:42:22;95057.16;;;3.97;51.94
59009;BME280;44794;42.652;23.318;2023-02-03T11:44:48;95043.94;;;4.26;51.59
59009;BME280;44794;42.652;23.318;2023-02-03T11:47:14;95036.66;;;4.55;50.80
59009;BME280;44794;42.652;23.318;2023-02-03T11:50:00;95045.22;;;4.74;51.18
59009;BME280;44794;42.652;23.318;2023-02-03T11:52:49;95047.09;;;4.89;50.54
59009;BME280;44794;42.652;23.318;2023-02-03T11:55:42;95048.09;;;4.48;nan
59009;BME280;44794;42.652;23.318;2023-02-03T12:01:22;95049.34;;;4.58;49.65
59009;BME280;44794;42.652;23.318;2023-02-03T12:12:06;95040.81;;;4.95;46.78
59009;BME280;44794;42.652;23.318;2023-02-03T12:23:24;95054.41;;;4.02;48.02
59009;BME280;44794;42.652;23.318;2023-02-03T12:31:29;95053.38;;;3.86;47.96
59009;BME280;44794;42.652;23.318;2023-02-03T12:34:08;95058.81;;;3.78;47.61
59009;BME280;44794;42.652;23.318;2023-02-03T12:36:43;95044.00;;;3.85;47.42
59009;BME280;44794;42.652;23.318;2023-02-03T12:39:58;95050.03;;;4.04;47.76
59009;BME280;44794;42.652;23.318;2023-02-03T12:45:13;95039.84;;;4.22;46.30
59009;BME280;44794;42.652;23.318;2023-02-03T12:47:42;95040.47;;;4.07;47.04
59009;BME280;44794;42.652;23.318;2023-02-03T12:53:22;95026.72;;;3.69;48.70
59009;BME280;44794;42.652;23.318;2023-02-03T12:56:03;95029.50;;;3.84;49.03
59009;BME280;44794;42.652;23.318;2023-02-03T13:01:23;95008.34;;;4.17;48.76
59009;BME280;44794;42.652;23.318;2023-02-03T13:04:07;95008.19;;;4.40;48.36
59009;BME280;44794;42.652;23.318;2023-02-03T13:09:27;95000.44;;;4.22;49.25
59009;BME280;44794;42.652;23.318;2023-02-03T13:12:24;95019.00;;;4.28;49.78
59009;BME280;44794;42.652;23.318;2023-02-03T13:20:51;95006.44;;;4.02;51.70
59009;BME280;44794;42.652;23.318;2023-02-03T13:23:18;95005.41;;;3.67;52.63
59009;BME280;44794;42.652;23.318;2023-02-03T13:31:11;94996.63;;;3.51;54.03
59009;BME280;44794;42.652;23.318;2023-02-03T13:36:37;94996.38;;;3.37;55.50
59009;BME280;44794;42.652;23.318;2023-02-03T13:41:55;94991.78;;;3.23;55.13
59009;BME280;44794;42.652;23.318;2023-02-03T13:44:32;94990.38;;;3.16;54.83
59009;BME280;44794;42.652;23.318;2023-02-03T13:46:59;94985.94;;;3.20;55.29
59009;BME280;44794;42.652;23.318;2023-02-03T13:49:31;94990.50;;;3.33;55.50
59009;BME280;44794;42.652;23.318;2023-02-03T13:51:58;94994.00;;;3.52;55.22
59009;BME280;44794;42.652;23.318;2023-02-03T13:54:28;95001.56;;;3.35;55.25
59009;BME280;44794;42.652;23.318;2023-02-03T13:56:58;94998.84;;;3.38;55.66
59009;BME280;44794;42.652;23.318;2023-02-03T13:59:42;94994.38;;;3.23;55.82
59009;BME280;44794;42.652;23.318;2023-02-03T14:23:05;94981.53;;;2.81;60.45
59009;BME280;44794;42.652;23.318;2023-02-03T14:25:36;94977.28;;;2.80;60.42
59009;BME280;44794;42.652;23.318;2023-02-03T14:28:07;94979.13;;;2.76;60.08
59009;BME280;44794;42.652;23.318;2023-02-03T14:31:04;94979.22;;;2.75;59.41
59009;BME280;44794;42.652;23.318;2023-02-03T14:33:55;94982.66;;;2.74;59.30
59009;BME280;44794;42.652;23.318;2023-02-03T14:36:43;94985.81;;;2.80;59.29
59009;BME280;44794;42.652;23.318;2023-02-03T14:52:36;94981.22;;;2.88;54.63
59009;BME280;44794;42.652;23.318;2023-02-03T14:55:24;94981.22;;;2.88;55.35
59009;BME280;44794;42.652;23.318;2023-02-03T14:57:59;94973.78;;;2.82;55.68
59009;BME280;44794;42.652;23.318;2023-02-03T15:00:33;94970.06;;;2.68;55.89
59009;BME280;44794;42.652;23.318;2023-02-03T15:07:56;94946.88;;;2.71;57.80
59009;BME280;44794;42.652;23.318;2023-02-03T15:10:28;94948.22;;;2.58;56.87
59009;BME280;44794;42.652;23.318;2023-02-03T15:12:56;94934.69;;;2.54;57.27
59009;BME280;44794;42.652;23.318;2023-02-03T15:15:40;94933.03;;;2.53;57.17
59009;BME280;44794;42.652;23.318;2023-02-03T15:18:20;94919.66;;;2.45;57.16
59009;BME280;44794;42.652;23.318;2023-02-03T15:20:51;94922.28;;;2.44;56.78
59009;BME280;44794;42.652;23.318;2023-02-03T15:23:22;94920.69;;;2.41;56.17
59009;BME280;44794;42.652;23.318;2023-02-03T15:25:58;94922.53;;;2.38;55.62
59009;BME280;44794;42.652;23.318;2023-02-03T15:28:25;94913.47;;;2.29;55.59
59009;BME280;44794;42.652;23.318;2023-02-03T15:31:04;94915.25;;;2.27;55.13
59009;BME280;44794;42.652;23.318;2023-02-03T15:33:32;94910.13;;;2.27;55.52
59009;BME280;44794;42.652;23.318;2023-02-03T15:36:11;94916.47;;;2.18;54.56
59009;BME280;44794;42.652;23.318;2023-02-03T15:38:40;94917.97;;;2.23;54.31
59009;BME280;44794;42.652;23.318;2023-02-03T15:41:23;94905.47;;;2.16;54.20
59009;BME280;44794;42.652;23.318;2023-02-03T15:43:53;94908.06;;;2.14;54.48
59009;BME280;44794;42.652;23.318;2023-02-03T15:49:00;94905.66;;;2.10;53.69
59009;BME280;44794;42.652;23.318;2023-02-03T15:51:48;94904.59;;;2.15;53.46
59009;BME280;44794;42.652;23.318;2023-02-03T15:57:30;94886.50;;;1.97;54.99
59009;BME280;44794;42.652;23.318;2023-02-03T15:59:57;94894.16;;;1.98;55.51
59009;BME280;44794;42.652;23.318;2023-02-03T16:02:33;94887.53;;;1.93;55.49
59009;BME280;44794;42.652;23.318;2023-02-03T16:05:09;94885.13;;;1.88;55.70
59009;BME280;44794;42.652;23.318;2023-02-03T16:07:38;94891.75;;;1.94;55.50
59009;BME280;44794;42.652;23.318;2023-02-03T16:10:04;94887.47;;;1.94;55.27